Terminal Aerodrome Forecast
Issued by NWS Duluth, MN

Home | Current Version | Previous Version | Text Only | Print | Product List | Glossary On
Versions: 1 2 3 4 5 6 7 8 9 10 11 12 13 14 15 16 17 18 19 20 21 22 23 24 25 26 27 28 29 30 31
000
FTUS43 KDLH 101100
TAFDLH
TAF
KDLH 101137Z 1012/1112 VRB05KT P6SM BKN060
     FM101800 12007KT P6SM FEW060
     FM110000 10005KT P6SM SCT050
     FM110400 15006KT P6SM VCSH BKN050 PROB30 1104/1107 P6SM TS
      OVC050CB
     FM110900 17008KT 4SM -TSRA BR OVC025CB=

USA.gov is the U.S. government's official web portal to all federal, state and local government web resources and services.